createdAt,value
2018-03-08T00:01:17.900Z,86.50
2018-03-08T00:03:45.698Z,86.80
2018-03-08T00:09:23.869Z,87.50
2018-03-08T00:11:58.869Z,87.80
2018-03-08T00:14:40.306Z,88.10
2018-03-08T00:17:18.641Z,88.30
2018-03-08T00:19:48.390Z,88.70
2018-03-08T00:22:17.810Z,88.60
2018-03-08T00:24:45.821Z,88.90
2018-03-08T00:29:50.954Z,89.00
2018-03-08T00:32:22.821Z,89.70
2018-03-08T00:35:05.962Z,90.00
2018-03-08T00:37:33.947Z,90.10
2018-03-08T00:40:01.887Z,90.20
2018-03-08T00:42:30.489Z,90.30
2018-03-08T00:44:58.284Z,90.40
2018-03-08T00:47:26.037Z,90.50
2018-03-08T00:49:53.786Z,90.50
2018-03-08T00:52:24.314Z,90.50
2018-03-08T00:54:52.125Z,90.50
2018-03-08T00:57:20.631Z,90.60
2018-03-08T00:59:48.583Z,90.60
2018-03-08T01:02:16.373Z,90.60
2018-03-08T01:04:44.236Z,90.80
2018-03-08T01:07:12.162Z,90.80
2018-03-08T01:09:39.961Z,90.80
2018-03-08T01:12:07.734Z,90.70
2018-03-08T01:14:35.429Z,90.80
2018-03-08T01:17:03.653Z,90.80
2018-03-08T01:19:31.603Z,90.80
2018-03-08T01:21:59.625Z,90.90
2018-03-08T01:24:30.510Z,90.90
2018-03-08T01:27:13.489Z,90.90
2018-03-08T01:32:24.075Z,91.10
2018-03-08T01:34:52.323Z,91.10
2018-03-08T01:37:20.813Z,91.00
2018-03-08T01:39:48.555Z,91.10
2018-03-08T01:42:16.393Z,91.20
2018-03-08T01:44:44.745Z,91.30
2018-03-08T01:47:12.604Z,91.30
2018-03-08T01:49:40.887Z,91.30
2018-03-08T01:52:12.386Z,91.30
2018-03-08T01:54:40.338Z,91.30
2018-03-08T01:57:08.942Z,91.30
2018-03-08T01:59:36.892Z,91.20
2018-03-08T02:02:05.711Z,91.30
2018-03-08T02:04:33.616Z,91.40
2018-03-08T02:07:01.417Z,91.40
2018-03-08T02:09:30.042Z,91.40
2018-03-08T02:11:57.805Z,91.40
2018-03-08T02:14:25.828Z,91.40
2018-03-08T02:16:53.751Z,91.60
2018-03-08T02:19:21.700Z,91.50
2018-03-08T02:21:49.655Z,91.60
2018-03-08T02:24:17.366Z,91.70
2018-03-08T02:26:45.181Z,91.70
2018-03-08T02:29:12.847Z,91.70
2018-03-08T02:31:40.783Z,91.70
2018-03-08T02:34:08.459Z,91.60
2018-03-08T02:36:36.204Z,91.60
2018-03-08T02:39:04.115Z,91.60
2018-03-08T02:41:32.703Z,91.70
2018-03-08T02:44:00.432Z,91.70
2018-03-08T02:46:28.946Z,92.00
2018-03-08T02:48:56.651Z,92.00
2018-03-08T02:51:24.354Z,91.90
2018-03-08T02:53:52.237Z,92.00
2018-03-08T02:56:20.019Z,92.10
2018-03-08T02:58:47.990Z,91.90
2018-03-08T03:01:16.606Z,92.10
2018-03-08T03:03:44.361Z,91.40
2018-03-08T03:06:12.135Z,91.00
2018-03-08T03:08:39.803Z,90.60
2018-03-08T03:11:13.366Z,90.30
2018-03-08T03:13:41.387Z,90.20
2018-03-08T03:16:09.383Z,90.00
2018-03-08T03:18:37.364Z,90.40
2018-03-08T03:21:05.319Z,90.10
2018-03-08T03:23:33.095Z,90.20
2018-03-08T03:26:01.008Z,90.10
2018-03-08T03:28:28.723Z,90.40
2018-03-08T03:30:58.105Z,88.40
2018-03-08T03:33:25.901Z,87.60
2018-03-08T03:35:53.752Z,87.40
2018-03-08T03:38:21.476Z,86.70
2018-03-08T03:40:50.452Z,86.80
2018-03-08T03:43:18.210Z,86.80
2018-03-08T03:45:46.956Z,85.30
2018-03-08T03:48:14.828Z,85.20
2018-03-08T03:50:43.867Z,84.80
2018-03-08T03:53:11.609Z,84.60
2018-03-08T03:55:39.321Z,84.60
2018-03-08T03:58:08.156Z,84.40
2018-03-08T04:00:35.911Z,84.50
2018-03-08T04:03:03.856Z,84.90
2018-03-08T04:05:31.755Z,85.30
2018-03-08T04:07:59.487Z,84.40
2018-03-08T04:10:27.225Z,84.70
2018-03-08T04:12:55.008Z,84.30
2018-03-08T04:15:22.803Z,84.50
2018-03-08T04:17:51.898Z,84.30
2018-03-08T04:20:19.694Z,84.30
2018-03-08T04:22:48.566Z,84.30
2018-03-08T04:25:16.215Z,84.10
2018-03-08T04:27:43.990Z,84.00
2018-03-08T04:30:11.997Z,83.00
2018-03-08T04:32:40.244Z,82.90
2018-03-08T04:35:08.136Z,82.00
2018-03-08T04:37:36.163Z,81.50
2018-03-08T04:40:04.308Z,81.10
2018-03-08T04:42:33.209Z,79.70
2018-03-08T04:45:03.407Z,79.70
2018-03-08T04:47:31.312Z,79.30
2018-03-08T04:49:59.217Z,78.50
2018-03-08T04:52:27.137Z,78.20
2018-03-08T04:54:55.836Z,77.20
2018-03-08T04:57:23.804Z,77.10
2018-03-08T04:59:53.613Z,77.00
2018-03-08T05:02:26.166Z,76.80
2018-03-08T05:04:54.103Z,77.20
2018-03-08T05:07:22.049Z,77.60
2018-03-08T05:09:49.913Z,77.60
2018-03-08T05:12:17.770Z,77.20
2018-03-08T05:14:46.833Z,77.30
2018-03-08T05:17:14.933Z,76.80
2018-03-08T05:19:42.894Z,76.40
2018-03-08T05:22:10.628Z,76.40
2018-03-08T05:24:38.563Z,76.90
2018-03-08T05:27:06.554Z,76.60
2018-03-08T05:29:34.411Z,77.30
2018-03-08T05:32:02.301Z,77.50
2018-03-08T05:34:33.299Z,77.60
2018-03-08T05:37:01.173Z,77.50
2018-03-08T05:39:29.086Z,77.80
2018-03-08T05:41:56.834Z,77.60
2018-03-08T05:44:26.232Z,77.50
2018-03-08T05:46:54.033Z,77.30
2018-03-08T05:49:21.884Z,77.10
2018-03-08T05:51:49.840Z,76.30
2018-03-08T05:54:18.741Z,76.70
2018-03-08T05:56:46.626Z,76.70
2018-03-08T05:59:15.164Z,76.60
2018-03-08T06:01:43.042Z,76.60
2018-03-08T06:04:11.049Z,77.20
2018-03-08T06:06:38.977Z,77.00
2018-03-08T06:09:07.795Z,77.10
2018-03-08T06:11:39.968Z,76.60
2018-03-08T06:14:07.846Z,76.60
2018-03-08T06:16:35.761Z,76.80
2018-03-08T06:19:03.916Z,77.00
2018-03-08T06:21:31.732Z,76.80
2018-03-08T06:24:00.135Z,77.10
2018-03-08T06:26:28.485Z,77.10
2018-03-08T06:28:57.280Z,75.80
2018-03-08T06:31:25.022Z,75.70
2018-03-08T06:33:53.139Z,75.60
2018-03-08T06:36:21.030Z,75.70
2018-03-08T06:38:49.039Z,75.10
2018-03-08T06:41:16.933Z,74.50
2018-03-08T06:43:44.876Z,74.90
2018-03-08T06:46:12.777Z,74.60
2018-03-08T06:48:40.773Z,74.80
2018-03-08T06:51:08.900Z,74.90
2018-03-08T06:53:37.719Z,75.00
2018-03-08T06:56:05.685Z,75.20
2018-03-08T06:58:35.541Z,75.40
2018-03-08T07:01:04.213Z,75.50
2018-03-08T07:03:32.227Z,75.80
2018-03-08T07:06:00.143Z,75.90
2018-03-08T07:08:28.239Z,75.70
2018-03-08T07:10:56.218Z,75.00
2018-03-08T07:13:24.915Z,73.60
2018-03-08T07:15:53.083Z,73.40
2018-03-08T07:18:21.629Z,74.10
2018-03-08T07:20:50.575Z,74.10
2018-03-08T07:23:18.499Z,74.30
2018-03-08T07:25:46.515Z,73.70
2018-03-08T07:28:14.588Z,73.40
2018-03-08T07:30:44.438Z,73.40
2018-03-08T07:33:13.028Z,73.10
2018-03-08T07:35:40.880Z,73.00
2018-03-08T07:38:08.779Z,73.30
2018-03-08T07:40:36.880Z,72.40
2018-03-08T07:43:05.335Z,72.50
2018-03-08T07:45:33.949Z,72.40
2018-03-08T07:48:01.828Z,72.40
2018-03-08T07:50:29.938Z,72.00
2018-03-08T07:52:57.868Z,71.20
2018-03-08T07:55:25.808Z,71.80
2018-03-08T07:57:53.786Z,72.50
2018-03-08T08:00:22.486Z,72.30
2018-03-08T08:02:51.120Z,72.70
2018-03-08T08:05:30.730Z,72.00
2018-03-08T08:08:10.389Z,71.90
2018-03-08T08:10:39.141Z,69.20
2018-03-08T08:13:09.263Z,69.30
2018-03-08T08:15:38.964Z,69.30
2018-03-08T08:18:06.960Z,69.30
2018-03-08T08:20:35.379Z,68.60
2018-03-08T08:23:03.435Z,67.60
2018-03-08T08:25:31.215Z,66.90
2018-03-08T08:27:58.968Z,67.30
2018-03-08T08:30:26.853Z,66.20
2018-03-08T08:32:54.757Z,66.40
2018-03-08T08:35:22.725Z,66.70
2018-03-08T08:37:51.622Z,65.70
2018-03-08T08:40:20.299Z,66.60
2018-03-08T08:42:48.870Z,64.00
2018-03-08T08:45:16.580Z,64.00
2018-03-08T08:47:44.319Z,63.60
2018-03-08T08:50:12.165Z,63.50
2018-03-08T08:52:40.903Z,64.80
2018-03-08T08:55:08.619Z,64.70
2018-03-08T08:57:36.518Z,64.40
2018-03-08T09:00:04.545Z,64.00
2018-03-08T09:02:32.597Z,63.80
2018-03-08T09:05:00.460Z,63.30
2018-03-08T09:07:28.368Z,63.40
2018-03-08T09:09:56.212Z,62.70
2018-03-08T09:12:24.208Z,63.40
2018-03-08T09:14:52.174Z,62.80
2018-03-08T09:17:20.149Z,63.50
2018-03-08T09:19:49.699Z,61.30
2018-03-08T09:22:18.371Z,61.60
2018-03-08T09:24:47.160Z,61.70
2018-03-08T09:27:15.060Z,62.90
2018-03-08T09:29:43.225Z,61.20
2018-03-08T09:32:11.059Z,61.90
2018-03-08T09:34:38.805Z,60.20
2018-03-08T09:37:07.290Z,60.30
2018-03-08T09:39:35.335Z,60.10
2018-03-08T09:42:03.105Z,60.20
2018-03-08T09:44:31.207Z,58.00
2018-03-08T09:46:58.934Z,58.90
2018-03-08T09:49:26.833Z,57.30
2018-03-08T09:51:54.575Z,57.30
2018-03-08T09:54:22.351Z,58.80
2018-03-08T09:56:50.195Z,57.00
2018-03-08T09:59:19.036Z,56.10
2018-03-08T10:01:46.959Z,54.90
2018-03-08T10:04:15.649Z,53.00
2018-03-08T10:06:43.427Z,53.80
2018-03-08T10:09:11.289Z,54.10
2018-03-08T10:11:39.149Z,52.60
2018-03-08T10:14:06.916Z,54.40
2018-03-08T10:16:34.922Z,54.00
2018-03-08T10:19:03.069Z,55.50
2018-03-08T10:21:44.546Z,53.90
2018-03-08T10:23:59.480Z,53.80
2018-03-08T10:26:27.564Z,55.50
2018-03-08T10:28:55.481Z,55.50
2018-03-08T10:31:23.443Z,55.00
2018-03-08T10:33:51.441Z,56.10
2018-03-08T10:36:19.314Z,54.80
2018-03-08T10:38:47.527Z,55.00
2018-03-08T10:41:15.214Z,55.70
2018-03-08T10:43:42.930Z,54.80
2018-03-08T10:46:10.976Z,53.20
2018-03-08T10:48:38.993Z,54.20
2018-03-08T10:51:07.740Z,52.10
2018-03-08T10:53:35.770Z,52.90
2018-03-08T10:56:03.589Z,53.10
2018-03-08T10:58:33.210Z,53.10
2018-03-08T11:00:59.779Z,53.90
2018-03-08T11:03:48.363Z,53.60
2018-03-08T11:06:21.053Z,54.80
2018-03-08T11:08:48.873Z,52.70
2018-03-08T11:11:16.740Z,52.60
2018-03-08T11:13:45.433Z,49.50
2018-03-08T11:16:13.354Z,49.50
2018-03-08T11:18:41.809Z,49.10
2018-03-08T11:21:09.754Z,48.30
2018-03-08T11:23:37.764Z,48.40
2018-03-08T11:26:05.917Z,49.30
2018-03-08T11:28:34.642Z,49.20
2018-03-08T11:31:02.543Z,49.00
2018-03-08T11:33:30.312Z,48.10
2018-03-08T11:35:58.307Z,49.70
2018-03-08T11:38:26.289Z,49.40
2018-03-08T11:40:54.211Z,48.60
2018-03-08T11:43:23.880Z,49.60
2018-03-08T11:45:51.152Z,47.40
2018-03-08T11:48:19.099Z,47.80
2018-03-08T11:50:47.210Z,48.00
2018-03-08T11:53:15.957Z,47.10
2018-03-08T11:55:44.023Z,47.00
2018-03-08T11:58:11.895Z,45.60
2018-03-08T12:00:39.907Z,45.50
2018-03-08T12:03:07.846Z,45.60
2018-03-08T12:05:35.734Z,46.00
2018-03-08T12:08:03.755Z,45.60
2018-03-08T12:10:31.767Z,46.70
2018-03-08T12:13:00.536Z,45.90
2018-03-08T12:15:29.078Z,45.40
2018-03-08T12:17:56.940Z,45.30
2018-03-08T12:20:25.550Z,46.10
2018-03-08T12:22:53.474Z,46.00
2018-03-08T12:25:21.358Z,47.10
2018-03-08T12:27:49.255Z,46.50
2018-03-08T12:30:17.214Z,47.10
2018-03-08T12:32:45.119Z,47.20
2018-03-08T12:35:13.008Z,46.40
2018-03-08T12:37:40.905Z,45.70
2018-03-08T12:40:08.788Z,45.80
2018-03-08T12:42:37.699Z,42.60
2018-03-08T12:45:05.583Z,42.50
2018-03-08T12:47:33.629Z,43.10
2018-03-08T12:50:01.579Z,41.70
2018-03-08T12:52:29.682Z,41.80
2018-03-08T12:54:57.407Z,43.10
2018-03-08T12:57:26.023Z,42.90
2018-03-08T12:59:53.968Z,42.90
2018-03-08T13:02:21.829Z,44.30
2018-03-08T13:04:49.689Z,42.90
2018-03-08T13:07:17.800Z,43.50
2018-03-08T13:09:45.618Z,43.30
2018-03-08T13:12:13.572Z,42.20
2018-03-08T13:14:42.246Z,43.30
2018-03-08T13:17:10.264Z,43.30
2018-03-08T13:19:38.240Z,42.90
2018-03-08T13:22:07.312Z,42.60
2018-03-08T13:24:36.048Z,40.50
2018-03-08T13:27:03.997Z,40.40
2018-03-08T13:29:32.106Z,40.60
2018-03-08T13:32:00.032Z,42.00
2018-03-08T13:34:27.989Z,43.10
2018-03-08T13:36:55.933Z,41.70
2018-03-08T13:39:23.661Z,39.40
2018-03-08T13:41:51.382Z,40.30
2018-03-08T13:44:19.576Z,42.00
2018-03-08T13:46:48.074Z,37.40
2018-03-08T13:49:27.726Z,37.30
2018-03-08T13:51:56.607Z,39.00
2018-03-08T13:54:24.281Z,37.20
2018-03-08T13:56:52.002Z,38.30
2018-03-08T13:59:20.430Z,39.50
2018-03-08T14:01:49.880Z,39.50
2018-03-08T14:04:17.971Z,39.00
2018-03-08T14:06:45.696Z,39.80
2018-03-08T14:09:13.598Z,39.50
2018-03-08T14:11:41.387Z,39.50
2018-03-08T14:14:09.123Z,40.20
2018-03-08T14:16:37.061Z,40.80
2018-03-08T14:19:04.911Z,40.40
2018-03-08T14:21:32.771Z,40.00
2018-03-08T14:24:00.718Z,39.90
2018-03-08T14:26:29.064Z,39.60
2018-03-08T14:28:57.076Z,40.30
2018-03-08T14:31:24.932Z,41.40
2018-03-08T14:33:53.626Z,39.70
2018-03-08T14:36:21.379Z,40.00
2018-03-08T14:38:49.310Z,38.60
2018-03-08T14:41:17.274Z,38.40
2018-03-08T14:43:45.370Z,37.70
2018-03-08T14:46:13.196Z,38.00
2018-03-08T14:48:41.922Z,37.20
2018-03-08T14:51:09.956Z,37.00
2018-03-08T14:53:37.815Z,36.60
2018-03-08T14:56:06.463Z,37.30
2018-03-08T14:58:34.365Z,36.80
2018-03-08T15:01:03.043Z,37.70
2018-03-08T15:03:31.573Z,37.70
2018-03-08T15:06:00.108Z,37.70
2018-03-08T15:08:27.980Z,37.70
2018-03-08T15:10:56.025Z,38.10
2018-03-08T15:13:24.026Z,37.40
2018-03-08T15:15:52.108Z,37.90
2018-03-08T15:18:20.898Z,37.50
2018-03-08T15:20:48.855Z,37.50
2018-03-08T15:23:16.845Z,38.00
2018-03-08T15:25:44.622Z,37.30
2018-03-08T15:28:12.683Z,38.50
2018-03-08T15:30:41.402Z,38.20
2018-03-08T15:33:09.356Z,37.90
2018-03-08T15:35:37.423Z,37.90
2018-03-08T15:38:05.218Z,38.20
2018-03-08T15:40:33.136Z,39.00
2018-03-08T15:43:01.759Z,38.80
2018-03-08T15:45:29.491Z,38.80
2018-03-08T15:47:58.076Z,39.60
2018-03-08T15:50:25.756Z,39.50
2018-03-08T15:52:53.882Z,39.70
2018-03-08T15:55:21.919Z,39.00
2018-03-08T15:57:49.888Z,39.50
2018-03-08T16:00:18.720Z,40.00
2018-03-08T16:02:46.607Z,40.50
2018-03-08T16:05:14.588Z,40.30
2018-03-08T16:07:54.895Z,40.10
2018-03-08T16:10:33.656Z,40.80
2018-03-08T16:13:02.511Z,41.70
2018-03-08T16:15:30.336Z,42.50
2018-03-08T16:17:58.138Z,42.70
2018-03-08T16:20:26.644Z,43.20
2018-03-08T16:22:54.628Z,43.50
2018-03-08T16:25:23.312Z,44.30
2018-03-08T16:27:50.888Z,44.20
2018-03-08T16:30:18.566Z,44.40
2018-03-08T16:32:46.900Z,45.00
2018-03-08T16:35:14.784Z,45.80
2018-03-08T16:37:42.386Z,46.40
2018-03-08T16:40:10.001Z,46.80
2018-03-08T16:42:37.701Z,47.40
2018-03-08T16:45:05.457Z,48.10
2018-03-08T16:47:33.947Z,50.20
2018-03-08T16:50:02.476Z,49.60
2018-03-08T16:52:30.202Z,50.10
2018-03-08T16:54:58.886Z,50.40
2018-03-08T16:57:26.628Z,50.20
2018-03-08T16:59:54.386Z,50.90
2018-03-08T17:02:23.965Z,51.70
2018-03-08T17:04:52.602Z,51.70
2018-03-08T17:07:21.007Z,52.40
2018-03-08T17:09:50.792Z,53.50
2018-03-08T17:12:19.258Z,55.30
2018-03-08T17:14:46.981Z,55.70
2018-03-08T17:17:14.686Z,56.50
2018-03-08T17:19:43.278Z,57.50
2018-03-08T17:22:11.027Z,58.20
2018-03-08T17:24:39.474Z,59.40
2018-03-08T17:27:08.188Z,59.30
2018-03-08T17:29:36.762Z,60.30
2018-03-08T17:32:04.392Z,59.70
2018-03-08T17:34:32.221Z,60.40
2018-03-08T17:37:00.204Z,59.70
2018-03-08T17:39:28.063Z,60.90
2018-03-08T17:41:55.889Z,61.30
2018-03-08T17:44:24.520Z,62.50
2018-03-08T17:46:52.291Z,62.40
2018-03-08T17:49:19.966Z,62.40
2018-03-08T17:51:47.622Z,62.70
2018-03-08T17:54:15.269Z,63.00
2018-03-08T17:56:43.686Z,63.40
2018-03-08T17:59:12.050Z,64.60
2018-03-08T18:01:39.642Z,64.50
2018-03-08T18:04:07.308Z,64.50
2018-03-08T18:06:34.900Z,65.10
2018-03-08T18:09:03.428Z,65.70
2018-03-08T18:11:31.186Z,65.70
2018-03-08T18:13:58.955Z,66.30
2018-03-08T18:16:27.510Z,66.30
2018-03-08T18:18:55.708Z,68.60
2018-03-08T18:21:32.775Z,70.50
2018-03-08T18:24:00.816Z,70.30
2018-03-08T18:26:28.850Z,70.90
2018-03-08T18:28:58.804Z,70.10
2018-03-08T18:31:28.686Z,70.30
2018-03-08T18:33:56.670Z,71.80
2018-03-08T18:36:25.654Z,72.00
2018-03-08T18:38:54.354Z,72.00
2018-03-08T18:41:22.471Z,71.60
2018-03-08T18:43:50.682Z,71.20
2018-03-08T18:49:22.694Z,72.40
2018-03-08T18:51:52.614Z,71.50
2018-03-08T18:54:22.551Z,71.80
2018-03-08T18:56:51.722Z,71.80
2018-03-08T18:59:20.528Z,72.20
2018-03-08T19:01:49.687Z,72.10
2018-03-08T19:04:20.064Z,72.80
2018-03-08T19:06:48.820Z,72.70
2018-03-08T19:09:16.888Z,71.90
2018-03-08T19:11:45.608Z,72.70
2018-03-08T19:14:14.520Z,72.80
2018-03-08T19:16:42.596Z,72.80
2018-03-08T19:19:12.668Z,73.40
2018-03-08T19:21:40.792Z,72.60
2018-03-08T19:24:08.624Z,73.10
2018-03-08T19:26:36.890Z,73.90
2018-03-08T19:29:04.633Z,72.70
2018-03-08T19:31:33.051Z,73.20
2018-03-08T19:34:00.756Z,72.70
2018-03-08T19:36:30.174Z,73.20
2018-03-08T19:38:57.918Z,73.10
2018-03-08T19:41:25.856Z,73.20
2018-03-08T19:43:53.697Z,72.80
2018-03-08T19:46:22.245Z,73.50
2018-03-08T19:48:50.000Z,73.60
2018-03-08T19:51:17.723Z,73.20
2018-03-08T19:53:45.454Z,73.00
2018-03-08T19:56:13.182Z,72.90
2018-03-08T19:58:41.763Z,74.30
2018-03-08T20:01:09.482Z,73.60
2018-03-08T20:03:37.400Z,73.10
2018-03-08T20:06:05.319Z,73.10
2018-03-08T20:08:33.126Z,72.30
2018-03-08T20:11:00.986Z,71.90
2018-03-08T20:13:29.344Z,73.20
2018-03-08T20:15:59.121Z,72.10
2018-03-08T20:18:28.546Z,72.40
2018-03-08T20:20:56.301Z,73.20
2018-03-08T20:23:24.530Z,73.90
2018-03-08T20:25:52.367Z,73.80
2018-03-08T20:28:21.539Z,73.90
2018-03-08T20:30:49.454Z,73.80
2018-03-08T20:33:17.759Z,73.80
2018-03-08T20:35:46.157Z,74.40
2018-03-08T20:38:14.014Z,74.30
2018-03-08T20:40:41.792Z,74.10
2018-03-08T20:43:10.454Z,73.80
2018-03-08T20:45:38.304Z,74.40
2018-03-08T20:48:07.395Z,74.40
2018-03-08T20:50:37.902Z,74.40
2018-03-08T20:53:06.760Z,74.70
2018-03-08T20:55:34.623Z,75.00
2018-03-08T20:58:02.418Z,74.50
2018-03-08T21:00:30.119Z,74.50
2018-03-08T21:02:57.797Z,74.40
2018-03-08T21:05:25.456Z,74.90
2018-03-08T21:07:53.853Z,75.50
2018-03-08T21:10:22.348Z,75.70
2018-03-08T21:12:50.006Z,75.50
2018-03-08T21:15:18.453Z,74.80
2018-03-08T21:17:46.850Z,74.70
2018-03-08T21:20:14.554Z,74.60
2018-03-08T21:22:42.082Z,75.20
2018-03-08T21:25:09.835Z,75.30
2018-03-08T21:27:37.414Z,75.60
2018-03-08T21:30:05.980Z,76.00
2018-03-08T21:32:33.556Z,76.40
2018-03-08T21:35:02.010Z,77.00
2018-03-08T21:37:30.450Z,77.20
2018-03-08T21:39:58.082Z,77.20
2018-03-08T21:42:25.818Z,77.60
2018-03-08T21:44:53.520Z,77.80
2018-03-08T21:47:21.167Z,77.90
2018-03-08T21:49:48.838Z,77.70
2018-03-08T21:52:16.490Z,78.20
2018-03-08T21:54:44.156Z,78.30
2018-03-08T21:57:11.778Z,78.70
2018-03-08T21:59:39.556Z,78.60
2018-03-08T22:02:07.148Z,78.40
2018-03-08T22:04:35.270Z,78.90
2018-03-08T22:07:02.936Z,78.70
2018-03-08T22:09:30.608Z,78.40
2018-03-08T22:11:58.262Z,78.90
2018-03-08T22:14:25.955Z,79.10
2018-03-08T22:16:55.718Z,79.40
2018-03-08T22:19:23.590Z,79.80
2018-03-08T22:21:52.352Z,79.80
2018-03-08T22:24:20.356Z,80.00
2018-03-08T22:26:48.168Z,80.70
2018-03-08T22:29:16.066Z,80.10
2018-03-08T22:31:44.001Z,80.00
2018-03-08T22:34:12.775Z,80.40
2018-03-08T22:36:41.771Z,80.70
2018-03-08T22:39:10.436Z,80.80
2018-03-08T22:41:39.039Z,80.20
2018-03-08T22:44:06.991Z,80.20
2018-03-08T22:46:34.922Z,80.40
2018-03-08T22:49:02.926Z,80.60
2018-03-08T22:51:33.194Z,80.30
2018-03-08T22:54:01.923Z,80.50
2018-03-08T22:56:29.743Z,80.70
2018-03-08T22:58:57.512Z,80.60
2018-03-08T23:01:48.899Z,80.70
2018-03-08T23:04:17.384Z,81.20
2018-03-08T23:06:45.256Z,81.10
2018-03-08T23:09:13.105Z,81.40
2018-03-08T23:11:41.003Z,81.20
2018-03-08T23:14:08.882Z,81.00
2018-03-08T23:16:36.747Z,81.40
2018-03-08T23:19:05.307Z,81.50
2018-03-08T23:21:33.216Z,81.40
2018-03-08T23:24:01.060Z,81.10
2018-03-08T23:26:28.983Z,81.70
2018-03-08T23:28:57.706Z,82.20
2018-03-08T23:31:25.573Z,82.10
2018-03-08T23:33:53.395Z,82.40
2018-03-08T23:36:21.282Z,82.50
2018-03-08T23:38:49.344Z,83.00
2018-03-08T23:41:17.067Z,83.30
2018-03-08T23:43:44.746Z,83.60
2018-03-08T23:46:12.449Z,83.50
2018-03-08T23:48:40.238Z,83.50
2018-03-08T23:51:08.080Z,83.30
2018-03-08T23:53:36.652Z,83.70
2018-03-08T23:56:05.030Z,83.60
2018-03-08T23:58:33.453Z,83.70
